createdAt,value
2017-11-13T00:01:20.054Z,99.90
2017-11-13T00:03:47.672Z,99.90
2017-11-13T00:06:15.286Z,99.90
2017-11-13T00:08:43.709Z,99.90
2017-11-13T00:11:11.339Z,99.90
2017-11-13T00:13:38.997Z,99.90
2017-11-13T00:16:06.618Z,99.90
2017-11-13T00:18:34.238Z,99.90
2017-11-13T00:21:02.659Z,99.90
2017-11-13T00:23:30.276Z,99.90
2017-11-13T00:25:57.960Z,99.90
2017-11-13T00:28:25.576Z,99.90
2017-11-13T00:30:53.188Z,99.50
2017-11-13T00:33:20.834Z,98.90
2017-11-13T00:35:49.216Z,99.00
2017-11-13T00:38:16.859Z,98.90
2017-11-13T00:40:44.485Z,98.20
2017-11-13T00:43:12.867Z,98.90
2017-11-13T00:45:41.287Z,98.30
2017-11-13T00:48:08.928Z,98.30
2017-11-13T00:50:36.572Z,99.50
2017-11-13T00:53:04.188Z,99.90
2017-11-13T00:55:31.800Z,99.90
2017-11-13T00:58:00.213Z,99.90
2017-11-13T01:00:27.827Z,99.90
2017-11-13T01:02:56.238Z,99.90
2017-11-13T01:05:23.862Z,99.90
2017-11-13T01:07:51.467Z,99.90
2017-11-13T01:10:19.881Z,99.90
2017-11-13T01:12:47.505Z,99.90
2017-11-13T01:15:15.147Z,99.90
2017-11-13T01:17:42.759Z,99.90
2017-11-13T01:20:10.387Z,99.90
2017-11-13T01:22:38.037Z,99.90
2017-11-13T01:25:05.659Z,99.90
2017-11-13T01:27:33.319Z,99.90
2017-11-13T01:30:00.939Z,99.90
2017-11-13T01:32:28.567Z,99.90
2017-11-13T01:34:56.231Z,99.90
2017-11-13T01:37:23.861Z,99.90
2017-11-13T01:39:51.504Z,99.90
2017-11-13T01:42:19.132Z,99.90
2017-11-13T01:44:47.518Z,99.90
2017-11-13T01:47:15.205Z,99.90
2017-11-13T01:49:42.824Z,99.90
2017-11-13T01:52:10.473Z,99.90
2017-11-13T01:54:38.097Z,99.90
2017-11-13T01:57:05.826Z,99.90
2017-11-13T01:59:33.465Z,99.90
2017-11-13T02:02:01.096Z,99.90
2017-11-13T02:04:28.748Z,99.90
2017-11-13T02:06:56.396Z,99.90
2017-11-13T02:09:24.021Z,99.90
2017-11-13T02:11:51.702Z,99.90
2017-11-13T02:14:19.323Z,99.90
2017-11-13T02:16:46.975Z,99.90
2017-11-13T02:19:14.604Z,99.90
2017-11-13T02:21:42.226Z,99.90
2017-11-13T02:24:09.884Z,99.90
2017-11-13T02:26:37.507Z,99.90
2017-11-13T02:29:05.183Z,99.90
2017-11-13T02:31:32.809Z,99.90
2017-11-13T02:34:00.435Z,99.90
2017-11-13T02:36:28.104Z,99.90
2017-11-13T02:38:55.724Z,99.90
2017-11-13T02:41:24.157Z,99.90
2017-11-13T02:43:51.802Z,99.90
2017-11-13T02:46:19.440Z,99.90
2017-11-13T02:48:47.095Z,99.90
2017-11-13T02:51:14.728Z,99.90
2017-11-13T02:53:42.401Z,99.90
2017-11-13T02:56:10.031Z,99.90
2017-11-13T02:58:37.663Z,99.90
2017-11-13T03:01:05.351Z,99.90
2017-11-13T03:03:33.758Z,99.90
2017-11-13T03:06:01.420Z,99.90
2017-11-13T03:08:29.053Z,99.90
2017-11-13T03:10:56.674Z,99.90
2017-11-13T03:13:25.100Z,99.90
2017-11-13T03:15:52.723Z,99.90
2017-11-13T03:18:20.383Z,99.90
2017-11-13T03:20:48.011Z,99.90
2017-11-13T03:23:15.636Z,99.90
2017-11-13T03:25:43.293Z,99.90
2017-11-13T03:28:10.919Z,99.90
2017-11-13T03:30:39.343Z,99.90
2017-11-13T03:33:06.974Z,99.90
2017-11-13T03:35:34.616Z,99.90
2017-11-13T03:38:02.271Z,99.90
2017-11-13T03:40:29.887Z,99.90
2017-11-13T03:42:57.539Z,99.90
2017-11-13T03:45:25.169Z,99.90
2017-11-13T03:47:52.797Z,99.90
2017-11-13T03:50:21.221Z,99.90
2017-11-13T03:52:48.855Z,99.90
2017-11-13T03:55:16.632Z,99.90
2017-11-13T03:57:44.260Z,99.90
2017-11-13T04:00:11.892Z,99.90
2017-11-13T04:02:39.551Z,99.90
2017-11-13T04:05:07.197Z,99.90
2017-11-13T04:07:34.910Z,99.90
2017-11-13T04:10:02.532Z,99.90
2017-11-13T04:12:30.155Z,99.90
2017-11-13T04:14:57.817Z,99.90
2017-11-13T04:17:25.458Z,99.90
2017-11-13T04:19:53.120Z,99.90
2017-11-13T04:22:21.521Z,99.90
2017-11-13T04:24:49.144Z,99.90
2017-11-13T04:27:17.563Z,99.90
2017-11-13T04:29:45.185Z,99.90
2017-11-13T04:32:12.840Z,99.90
2017-11-13T04:34:40.476Z,99.90
2017-11-13T04:37:08.105Z,99.90
2017-11-13T04:39:35.774Z,99.90
2017-11-13T04:42:03.397Z,99.90
2017-11-13T04:44:31.057Z,99.90
2017-11-13T04:46:58.692Z,99.90
2017-11-13T04:49:26.830Z,99.90
2017-11-13T04:51:55.255Z,99.90
2017-11-13T04:54:22.894Z,99.90
2017-11-13T04:56:50.553Z,99.90
2017-11-13T04:59:18.190Z,99.90
2017-11-13T05:01:45.838Z,99.90
2017-11-13T05:04:13.499Z,99.90
2017-11-13T05:06:41.123Z,99.90
2017-11-13T05:09:08.774Z,99.90
2017-11-13T05:11:36.400Z,99.90
2017-11-13T05:14:04.040Z,99.90
2017-11-13T05:16:31.700Z,99.90
2017-11-13T05:18:59.331Z,99.90
2017-11-13T05:21:27.031Z,99.90
2017-11-13T05:23:54.662Z,99.90
2017-11-13T05:26:22.303Z,99.90
2017-11-13T05:28:49.959Z,99.90
2017-11-13T05:31:17.587Z,99.90
2017-11-13T05:33:45.265Z,99.90
2017-11-13T05:36:12.900Z,99.90
2017-11-13T05:38:40.518Z,99.90
2017-11-13T05:41:08.195Z,99.90
2017-11-13T05:43:35.816Z,99.90
2017-11-13T05:46:03.820Z,99.90
2017-11-13T05:48:32.007Z,99.90
2017-11-13T05:50:59.636Z,99.90
2017-11-13T05:53:28.093Z,99.90
2017-11-13T05:55:55.727Z,99.90
2017-11-13T05:58:23.385Z,99.90
2017-11-13T06:00:51.021Z,99.90
2017-11-13T06:03:18.681Z,99.90
2017-11-13T06:05:47.580Z,99.90
2017-11-13T06:08:15.202Z,99.90
2017-11-13T06:10:42.867Z,99.90
2017-11-13T06:13:10.491Z,99.90
2017-11-13T06:15:38.883Z,99.90
2017-11-13T06:18:06.543Z,99.90
2017-11-13T06:20:34.173Z,99.90
2017-11-13T06:23:01.828Z,99.90
2017-11-13T06:25:29.447Z,99.90
2017-11-13T06:27:57.090Z,99.90
2017-11-13T06:30:25.523Z,99.90
2017-11-13T06:32:53.151Z,99.90
2017-11-13T06:35:20.816Z,99.90
2017-11-13T06:37:48.439Z,99.90
2017-11-13T06:40:16.068Z,99.90
2017-11-13T06:42:43.725Z,99.90
2017-11-13T06:45:11.355Z,99.90
2017-11-13T06:47:39.003Z,99.90
2017-11-13T06:50:06.640Z,99.90
2017-11-13T06:52:35.024Z,99.90
2017-11-13T06:55:02.683Z,99.90
2017-11-13T06:57:30.304Z,99.90
2017-11-13T06:59:58.723Z,99.90
2017-11-13T07:02:27.165Z,99.90
2017-11-13T07:04:54.802Z,99.90
2017-11-13T07:07:22.451Z,99.90
2017-11-13T07:09:50.076Z,99.90
2017-11-13T07:12:17.725Z,99.90
2017-11-13T07:14:45.355Z,99.90
2017-11-13T07:17:13.757Z,99.90
2017-11-13T07:19:41.644Z,99.90
2017-11-13T07:22:09.572Z,99.90
2017-11-13T07:24:37.235Z,99.90
2017-11-13T07:27:04.861Z,99.90
2017-11-13T07:29:32.493Z,99.90
2017-11-13T07:32:00.163Z,99.90
2017-11-13T07:34:27.792Z,99.90
2017-11-13T07:36:55.461Z,99.90
2017-11-13T07:39:23.089Z,99.90
2017-11-13T07:41:50.706Z,99.90
2017-11-13T07:44:19.151Z,99.90
2017-11-13T07:46:46.777Z,99.90
2017-11-13T07:49:14.439Z,99.90
2017-11-13T07:51:42.148Z,99.90
2017-11-13T07:54:09.772Z,99.90
2017-11-13T07:56:37.420Z,99.90
2017-11-13T07:59:05.055Z,99.90
2017-11-13T08:01:32.713Z,99.90
2017-11-13T08:04:00.332Z,99.90
2017-11-13T08:06:28.724Z,99.90
2017-11-13T08:08:56.394Z,99.90
2017-11-13T08:11:24.026Z,99.90
2017-11-13T08:13:51.698Z,99.90
2017-11-13T08:16:19.370Z,99.90
2017-11-13T08:18:47.063Z,99.90
2017-11-13T08:21:14.752Z,99.90
2017-11-13T08:23:42.375Z,99.90
2017-11-13T08:26:10.064Z,99.90
2017-11-13T08:28:37.678Z,99.90
2017-11-13T08:31:05.301Z,99.90
2017-11-13T08:33:36.128Z,99.90
2017-11-13T08:36:03.746Z,99.90
2017-11-13T08:38:31.402Z,99.90
2017-11-13T08:40:59.029Z,99.90
2017-11-13T08:43:27.415Z,99.90
2017-11-13T08:45:55.070Z,99.90
2017-11-13T08:48:22.698Z,99.90
2017-11-13T08:50:50.356Z,99.90
2017-11-13T08:53:17.983Z,99.90
2017-11-13T08:55:46.369Z,99.90
2017-11-13T08:58:14.026Z,99.90
2017-11-13T09:00:41.657Z,99.90
2017-11-13T09:03:09.313Z,99.90
2017-11-13T09:05:36.946Z,99.90
2017-11-13T09:08:04.568Z,99.90
2017-11-13T09:10:32.226Z,99.90
2017-11-13T09:13:00.647Z,99.90
2017-11-13T09:15:28.306Z,99.90
2017-11-13T09:17:55.932Z,99.90
2017-11-13T09:20:23.564Z,99.90
2017-11-13T09:22:51.232Z,99.90
2017-11-13T09:25:18.864Z,99.90
2017-11-13T09:27:46.533Z,99.90
2017-11-13T09:30:14.165Z,99.90
2017-11-13T09:32:41.793Z,99.90
2017-11-13T09:35:09.447Z,99.90
2017-11-13T09:37:37.073Z,99.90
2017-11-13T09:40:04.747Z,99.90
2017-11-13T09:42:32.369Z,99.90
2017-11-13T09:45:00.743Z,99.90
2017-11-13T09:47:28.448Z,99.90
2017-11-13T09:49:56.852Z,99.90
2017-11-13T09:52:24.512Z,99.90
2017-11-13T09:54:52.133Z,99.90
2017-11-13T09:57:19.792Z,99.90
2017-11-13T09:59:47.418Z,99.90
2017-11-13T10:02:15.035Z,99.90
2017-11-13T10:04:42.748Z,99.90
2017-11-13T10:07:10.371Z,99.90
2017-11-13T10:09:38.035Z,99.90
2017-11-13T10:12:05.653Z,99.90
2017-11-13T10:14:33.311Z,99.90
2017-11-13T10:17:00.933Z,99.90
2017-11-13T10:19:29.357Z,99.90
2017-11-13T10:21:57.010Z,99.90
2017-11-13T10:24:26.075Z,99.90
2017-11-13T10:26:53.738Z,99.90
2017-11-13T10:29:22.173Z,99.90
2017-11-13T10:31:49.804Z,99.90
2017-11-13T10:34:18.251Z,99.90
2017-11-13T10:36:46.644Z,99.90
2017-11-13T10:39:14.301Z,99.90
2017-11-13T10:41:41.934Z,99.90
2017-11-13T10:44:10.705Z,99.90
2017-11-13T10:46:38.396Z,99.90
2017-11-13T10:49:06.048Z,99.90
2017-11-13T10:51:33.713Z,99.90
2017-11-13T10:54:02.103Z,99.90
2017-11-13T10:56:29.764Z,99.90
2017-11-13T10:58:57.383Z,99.90
2017-11-13T11:01:25.771Z,99.90
2017-11-13T11:03:53.425Z,99.90
2017-11-13T11:06:21.045Z,99.90
2017-11-13T11:08:48.709Z,99.90
2017-11-13T11:11:16.354Z,99.90
2017-11-13T11:16:47.637Z,99.90
2017-11-13T11:19:20.312Z,99.90
2017-11-13T11:21:47.942Z,99.90
2017-11-13T11:24:15.580Z,99.90
2017-11-13T11:26:54.973Z,99.90
2017-11-13T11:29:28.564Z,99.90
2017-11-13T11:32:05.008Z,99.90
2017-11-13T11:34:51.324Z,99.90
2017-11-13T11:37:25.706Z,99.90
2017-11-13T11:39:53.361Z,99.90
2017-11-13T11:42:21.000Z,99.90
2017-11-13T11:44:54.573Z,99.90
2017-11-13T11:47:22.197Z,99.90
2017-11-13T11:49:51.687Z,99.90
2017-11-13T11:52:19.316Z,99.90
2017-11-13T11:54:51.702Z,99.90
2017-11-13T11:57:35.679Z,99.90
2017-11-13T12:00:03.329Z,99.90
2017-11-13T12:02:30.991Z,99.90
2017-11-13T12:04:59.411Z,99.90
2017-11-13T12:07:27.065Z,99.90
2017-11-13T12:09:54.692Z,99.90
2017-11-13T12:12:22.362Z,99.90
2017-11-13T12:14:50.044Z,99.90
2017-11-13T12:17:18.445Z,99.90
2017-11-13T12:19:46.132Z,99.90
2017-11-13T12:22:14.587Z,99.90
2017-11-13T12:24:42.240Z,99.90
2017-11-13T12:27:10.169Z,99.90
2017-11-13T12:29:37.876Z,99.90
2017-11-13T12:32:06.308Z,99.40
2017-11-13T12:34:34.051Z,99.40
2017-11-13T12:37:01.721Z,99.70
2017-11-13T12:39:29.352Z,99.90
2017-11-13T12:41:56.984Z,98.70
2017-11-13T12:44:24.652Z,97.70
2017-11-13T12:46:52.293Z,99.30
2017-11-13T12:49:19.960Z,99.80
2017-11-13T12:51:48.349Z,99.10
2017-11-13T12:54:16.144Z,99.10
2017-11-13T12:56:43.835Z,98.60
2017-11-13T12:59:11.469Z,97.30
2017-11-13T13:01:39.904Z,98.20
2017-11-13T13:04:07.573Z,98.20
2017-11-13T13:06:35.263Z,99.10
2017-11-13T13:09:02.912Z,98.90
2017-11-13T13:11:30.573Z,98.10
2017-11-13T13:13:58.236Z,96.30
2017-11-13T13:16:25.872Z,96.10
2017-11-13T13:18:53.541Z,95.70
2017-11-13T13:21:21.172Z,96.50
2017-11-13T13:23:48.857Z,97.20
2017-11-13T13:26:17.288Z,96.50
2017-11-13T13:28:44.926Z,96.50
2017-11-13T13:31:12.589Z,96.30
2017-11-13T13:33:40.225Z,95.20
2017-11-13T13:36:07.851Z,94.80
2017-11-13T13:38:35.578Z,95.70
2017-11-13T13:41:03.195Z,95.10
2017-11-13T13:43:30.852Z,95.40
2017-11-13T13:45:58.484Z,95.40
2017-11-13T13:48:26.117Z,95.60
2017-11-13T13:50:53.785Z,96.00
2017-11-13T13:53:21.424Z,96.70
2017-11-13T13:55:49.090Z,96.20
2017-11-13T13:58:17.546Z,95.70
2017-11-13T14:00:45.967Z,96.00
2017-11-13T14:03:13.628Z,96.00
2017-11-13T14:05:41.271Z,96.40
2017-11-13T14:08:08.982Z,97.20
2017-11-13T14:10:36.620Z,96.60
2017-11-13T14:13:04.258Z,95.70
2017-11-13T14:15:32.709Z,96.10
2017-11-13T14:18:00.392Z,96.10
2017-11-13T14:20:28.055Z,97.20
2017-11-13T14:22:55.753Z,97.90
2017-11-13T14:25:24.149Z,99.00
2017-11-13T14:27:51.804Z,99.00
2017-11-13T14:30:19.432Z,99.10
2017-11-13T14:32:47.092Z,99.00
2017-11-13T14:35:14.727Z,98.90
2017-11-13T14:37:42.369Z,99.00
2017-11-13T14:40:10.029Z,98.10
2017-11-13T14:42:37.660Z,98.20
2017-11-13T14:45:05.320Z,97.90
2017-11-13T14:47:33.043Z,99.10
2017-11-13T14:50:01.445Z,97.90
2017-11-13T14:52:29.104Z,97.90
2017-11-13T14:54:56.735Z,98.00
2017-11-13T14:57:24.381Z,98.00
2017-11-13T14:59:52.032Z,98.20
2017-11-13T15:02:19.659Z,96.80
2017-11-13T15:04:47.320Z,98.60
2017-11-13T15:07:14.952Z,97.90
2017-11-13T15:09:42.567Z,97.50
2017-11-13T15:12:10.218Z,98.00
2017-11-13T15:14:37.851Z,98.30
2017-11-13T15:17:05.506Z,98.50
2017-11-13T15:19:33.129Z,98.40
2017-11-13T15:22:00.771Z,98.40
2017-11-13T15:24:28.428Z,98.40
2017-11-13T15:26:56.059Z,98.90
2017-11-13T15:29:23.727Z,98.90
2017-11-13T15:31:51.372Z,99.80
2017-11-13T15:34:18.985Z,98.40
2017-11-13T15:36:46.646Z,99.90
2017-11-13T15:39:14.270Z,99.20
2017-11-13T15:41:41.945Z,99.60
2017-11-13T15:44:09.576Z,99.90
2017-11-13T15:46:37.196Z,99.20
2017-11-13T15:49:04.867Z,99.90
2017-11-13T15:51:32.500Z,99.90
2017-11-13T15:54:00.161Z,99.30
2017-11-13T15:56:27.816Z,99.50
2017-11-13T15:58:55.447Z,99.80
2017-11-13T16:01:23.109Z,99.90
2017-11-13T16:03:50.738Z,99.40
2017-11-13T16:06:19.205Z,99.00
2017-11-13T16:08:46.843Z,98.50
2017-11-13T16:11:14.503Z,98.20
2017-11-13T16:13:42.184Z,98.40
2017-11-13T16:16:09.854Z,99.30
2017-11-13T16:18:37.510Z,99.30
2017-11-13T16:21:05.239Z,99.50
2017-11-13T16:23:32.895Z,99.30
2017-11-13T16:26:01.295Z,99.70
2017-11-13T16:28:31.006Z,99.70
2017-11-13T16:30:58.668Z,99.40
2017-11-13T16:33:26.306Z,99.30
2017-11-13T16:35:53.967Z,99.80
2017-11-13T16:38:22.320Z,99.50
2017-11-13T16:40:50.839Z,99.90
2017-11-13T16:43:18.513Z,99.90
2017-11-13T16:45:46.162Z,99.90
2017-11-13T16:48:13.845Z,99.90
2017-11-13T16:50:41.622Z,99.90
2017-11-13T16:53:10.011Z,99.90
2017-11-13T16:55:40.055Z,99.90
2017-11-13T16:58:07.988Z,99.90
2017-11-13T17:00:35.855Z,99.90
2017-11-13T17:03:04.071Z,99.90
2017-11-13T17:05:31.696Z,99.90
2017-11-13T17:08:00.132Z,99.60
2017-11-13T17:10:27.759Z,99.60
2017-11-13T17:12:55.422Z,99.90
2017-11-13T17:15:23.059Z,99.90
2017-11-13T17:17:50.715Z,99.90
2017-11-13T17:20:18.367Z,99.90
2017-11-13T17:22:45.996Z,99.90
2017-11-13T17:25:13.652Z,99.90
2017-11-13T17:27:41.303Z,99.90
2017-11-13T17:30:08.953Z,99.90
2017-11-13T17:32:36.620Z,99.90
2017-11-13T17:35:05.022Z,99.90
2017-11-13T17:37:32.703Z,99.90
2017-11-13T17:40:00.411Z,99.90
2017-11-13T17:42:28.049Z,99.90
2017-11-13T17:44:55.718Z,99.90
2017-11-13T17:47:23.382Z,99.90
2017-11-13T17:49:50.994Z,99.90
2017-11-13T17:52:18.626Z,99.90
2017-11-13T17:54:47.061Z,99.40
2017-11-13T17:57:14.971Z,99.30
2017-11-13T17:59:43.335Z,97.80
2017-11-13T18:02:11.020Z,96.80
2017-11-13T18:04:38.682Z,96.60
2017-11-13T18:07:06.331Z,97.40
2017-11-13T18:09:33.977Z,98.70
2017-11-13T18:12:01.730Z,99.40
2017-11-13T18:14:30.132Z,99.80
2017-11-13T18:16:57.808Z,99.50
2017-11-13T18:19:25.448Z,99.90
2017-11-13T18:21:53.109Z,99.90
2017-11-13T18:24:20.736Z,99.90
2017-11-13T18:26:48.366Z,99.90
2017-11-13T18:29:16.020Z,99.90
2017-11-13T18:31:43.653Z,99.90
2017-11-13T18:34:11.317Z,99.90
2017-11-13T18:36:38.968Z,99.90
2017-11-13T18:39:06.600Z,99.90
2017-11-13T18:41:34.288Z,99.90
2017-11-13T18:44:01.922Z,99.90
2017-11-13T18:46:29.578Z,99.90
2017-11-13T18:48:57.246Z,99.90
2017-11-13T18:51:24.937Z,99.90
2017-11-13T18:53:52.563Z,99.90
2017-11-13T18:56:20.187Z,99.90
2017-11-13T18:58:48.357Z,99.90
2017-11-13T19:01:16.752Z,99.90
2017-11-13T19:03:44.408Z,99.90
2017-11-13T19:06:12.063Z,99.70
2017-11-13T19:08:39.698Z,99.70
2017-11-13T19:11:07.363Z,99.60
2017-11-13T19:13:35.046Z,99.60
2017-11-13T19:16:02.708Z,98.90
2017-11-13T19:18:31.121Z,98.20
2017-11-13T19:20:58.766Z,98.10
2017-11-13T19:23:26.427Z,98.60
2017-11-13T19:25:54.050Z,97.70
2017-11-13T19:28:21.707Z,98.20
2017-11-13T19:30:49.344Z,97.90
2017-11-13T19:33:16.971Z,98.10
2017-11-13T19:35:44.621Z,98.60
2017-11-13T19:38:12.264Z,98.60
2017-11-13T19:40:39.939Z,98.60
2017-11-13T19:43:07.575Z,98.60
2017-11-13T19:45:36.217Z,98.10
2017-11-13T19:48:03.884Z,97.40
2017-11-13T19:50:31.510Z,97.20
2017-11-13T19:52:59.183Z,97.90
2017-11-13T19:55:26.812Z,98.10
2017-11-13T19:57:54.439Z,97.30
2017-11-13T20:00:22.105Z,97.90
2017-11-13T20:02:49.740Z,97.60
2017-11-13T20:05:17.380Z,96.90
2017-11-13T20:07:45.043Z,96.70
2017-11-13T20:10:12.670Z,97.70
2017-11-13T20:12:41.104Z,97.00
2017-11-13T20:15:08.776Z,96.90
2017-11-13T20:17:37.492Z,97.40
2017-11-13T20:20:05.164Z,97.40
2017-11-13T20:22:32.809Z,97.40
2017-11-13T20:25:00.469Z,97.30
2017-11-13T20:27:28.100Z,97.50
2017-11-13T20:29:55.765Z,97.50
2017-11-13T20:32:23.515Z,96.70
2017-11-13T20:34:51.171Z,96.10
2017-11-13T20:37:18.826Z,97.00
2017-11-13T20:39:47.409Z,97.20
2017-11-13T20:42:15.214Z,97.20
2017-11-13T20:44:42.901Z,97.60
2017-11-13T20:47:11.258Z,97.20
2017-11-13T20:49:38.984Z,97.20
2017-11-13T20:52:06.657Z,97.40
2017-11-13T20:54:35.162Z,97.70
2017-11-13T20:57:02.828Z,97.70
2017-11-13T20:59:30.466Z,98.40
2017-11-13T21:01:58.096Z,99.60
2017-11-13T21:04:28.251Z,99.70
2017-11-13T21:06:55.867Z,99.00
2017-11-13T21:09:24.901Z,97.90
2017-11-13T21:11:52.599Z,97.60
2017-11-13T21:14:20.258Z,97.70
2017-11-13T21:16:47.991Z,98.10
2017-11-13T21:19:15.615Z,97.60
2017-11-13T21:21:43.303Z,97.30
2017-11-13T21:24:10.944Z,98.00
2017-11-13T21:26:42.189Z,98.60
2017-11-13T21:29:09.827Z,99.30
2017-11-13T21:31:39.239Z,99.30
2017-11-13T21:34:07.634Z,99.30
2017-11-13T21:36:35.274Z,99.20
2017-11-13T21:39:02.981Z,99.30
2017-11-13T21:41:30.666Z,98.90
2017-11-13T21:43:58.389Z,99.00
2017-11-13T21:46:26.061Z,99.20
2017-11-13T21:48:53.754Z,99.00
2017-11-13T21:51:21.400Z,98.30
2017-11-13T21:53:49.032Z,98.80
2017-11-13T21:56:16.693Z,99.00
2017-11-13T21:58:44.353Z,99.70
2017-11-13T22:01:12.021Z,99.90
2017-11-13T22:03:40.424Z,99.90
2017-11-13T22:06:08.079Z,99.90
2017-11-13T22:08:35.777Z,99.90
2017-11-13T22:11:04.270Z,99.40
2017-11-13T22:13:31.935Z,99.30
2017-11-13T22:15:59.623Z,99.30
2017-11-13T22:18:27.298Z,99.10
2017-11-13T22:20:54.948Z,98.90
2017-11-13T22:23:22.623Z,99.10
2017-11-13T22:25:50.255Z,99.50
2017-11-13T22:28:17.873Z,99.80
2017-11-13T22:30:46.325Z,99.60
2017-11-13T22:33:13.978Z,99.40
2017-11-13T22:35:41.655Z,99.40
2017-11-13T22:38:09.277Z,99.30
2017-11-13T22:40:36.912Z,99.20
2017-11-13T22:43:04.576Z,98.80
2017-11-13T22:45:32.970Z,98.70
2017-11-13T22:48:00.627Z,98.70
2017-11-13T22:50:28.253Z,98.80
2017-11-13T22:52:55.882Z,98.80
2017-11-13T22:55:24.303Z,98.30
2017-11-13T22:57:51.932Z,98.40
2017-11-13T23:00:19.619Z,98.20
2017-11-13T23:02:48.013Z,97.80
2017-11-13T23:05:15.636Z,97.80
2017-11-13T23:07:44.058Z,97.90
2017-11-13T23:10:11.682Z,97.90
2017-11-13T23:12:39.350Z,97.90
2017-11-13T23:15:06.972Z,98.10
2017-11-13T23:17:34.697Z,98.30
2017-11-13T23:20:03.131Z,98.90
2017-11-13T23:22:30.753Z,98.90
2017-11-13T23:24:58.433Z,99.40
2017-11-13T23:27:26.056Z,99.60
2017-11-13T23:29:53.697Z,99.40
2017-11-13T23:32:21.355Z,98.90
2017-11-13T23:34:49.060Z,98.50
2017-11-13T23:37:16.737Z,98.20
2017-11-13T23:39:44.380Z,97.80
2017-11-13T23:42:12.010Z,98.10
2017-11-13T23:44:39.675Z,98.00
2017-11-13T23:47:07.335Z,98.60
2017-11-13T23:49:35.001Z,98.10
2017-11-13T23:52:02.630Z,98.10
2017-11-13T23:54:36.115Z,98.10
2017-11-13T23:57:03.743Z,98.10
2017-11-13T23:59:31.549Z,98.40
